Time;durP1;ratioP1;P1;durP2;ratioP2;P2;SDS_P1;SDS_P2;PMS_P1;PMS_P2;Temp;Humidity;BMP_temperature;BMP_pressure;BME280_temperature;BME280_humidity;BME280_pressure;Samples;Min_cycle;Max_cycle;Signal;HPM_P1;HPM_P2
2021/11/30 00:02:19;;;;;;;9.88;4.68;;;;;;;1.59;87.99;99021.56;5039196;28;20148;-61
2021/11/30 00:04:44;;;;;;;11.43;5.35;;;;;;;1.52;88.33;99013.56;5040901;28;20039;-60
2021/11/30 00:07:10;;;;;;;10.57;5.18;;;;;;;1.51;88.75;99017.22;5039327;28;20476;-60
2021/11/30 00:12:07;;;;;;;11.18;4.95;;;;;;;1.54;88.89;99021.31;5040421;28;20076;-60
2021/11/30 00:14:32;;;;;;;9.60;4.65;;;;;;;1.58;87.46;99025.22;5040339;28;20064;-61
2021/11/30 00:16:58;;;;;;;10.80;4.63;;;;;;;1.56;87.08;99020.09;5040897;28;20096;-61
2021/11/30 00:19:24;;;;;;;8.52;4.35;;;;;;;1.61;87.33;99023.00;5040995;28;20121;-61
2021/11/30 00:21:50;;;;;;;8.05;5.03;;;;;;;1.55;86.85;99021.13;5032754;28;20037;-60
2021/11/30 00:24:15;;;;;;;9.20;4.90;;;;;;;1.56;86.93;99019.31;5032447;28;20097;-61
2021/11/30 00:26:41;;;;;;;8.38;4.05;;;;;;;1.67;86.33;99032.81;5039668;28;20718;-61
2021/11/30 00:29:06;;;;;;;12.00;4.38;;;;;;;1.63;86.44;99030.75;5040739;28;20447;-60
2021/11/30 00:31:32;;;;;;;8.57;4.68;;;;;;;1.60;86.58;99037.22;5035555;28;20510;-61
2021/11/30 00:33:57;;;;;;;8.70;4.70;;;;;;;1.61;87.10;99030.13;5040662;28;20102;-60
2021/11/30 00:36:22;;;;;;;13.25;4.80;;;;;;;1.54;86.81;99024.75;5041599;28;20044;-61
2021/11/30 00:38:48;;;;;;;12.63;5.28;;;;;;;1.43;87.54;99023.44;5044383;28;20083;-61
2021/11/30 00:41:13;;;;;;;11.57;5.45;;;;;;;1.43;87.40;99014.72;5042245;28;20060;-61
2021/11/30 00:43:40;;;;;;;10.25;5.05;;;;;;;1.45;87.91;99007.44;5043833;28;20029;-60
2021/11/30 00:48:40;;;;;;;10.23;5.10;;;;;;;1.47;87.50;99022.06;5044823;28;20110;-60
2021/11/30 00:51:13;;;;;;;13.65;5.63;;;;;;;1.46;86.98;99024.91;5041172;28;20041;-60
2021/11/30 00:53:39;;;;;;;12.73;5.30;;;;;;;1.43;86.92;99015.53;5038224;28;20116;-60
2021/11/30 00:56:05;;;;;;;9.20;4.72;;;;;;;1.38;86.94;99023.19;5043307;28;20132;-61
2021/11/30 00:58:30;;;;;;;8.85;5.20;;;;;;;1.38;87.29;99017.91;5058854;28;20583;-61
2021/11/30 01:00:56;;;;;;;10.73;4.90;;;;;;;1.37;87.10;99021.53;5043882;28;20055;-61
2021/11/30 01:03:21;;;;;;;11.30;4.65;;;;;;;1.39;86.70;99024.00;5043526;28;20083;-61
2021/11/30 01:05:47;;;;;;;14.15;5.38;;;;;;;1.42;87.96;99027.09;5043167;28;20688;-60
2021/11/30 01:08:12;;;;;;;11.77;5.55;;;;;;;1.39;86.97;99030.09;5043490;28;20037;-60
2021/11/30 01:10:38;;;;;;;14.38;4.90;;;;;;;1.34;87.12;99016.66;5042953;28;20119;-61
2021/11/30 01:13:04;;;;;;;9.05;4.63;;;;;;;1.28;87.65;99017.41;5042605;28;20032;-61
2021/11/30 01:15:29;;;;;;;10.65;5.00;;;;;;;1.22;87.97;99018.13;5043928;28;20072;-60
2021/11/30 01:17:55;;;;;;;8.65;4.65;;;;;;;1.28;87.63;99027.97;5043277;28;20115;-61
2021/11/30 01:20:20;;;;;;;7.30;4.40;;;;;;;1.36;86.37;99019.09;5042433;28;20126;-60
2021/11/30 01:22:46;;;;;;;8.50;4.45;;;;;;;1.46;85.16;99022.25;5043617;28;20487;-61
2021/11/30 01:25:11;;;;;;;7.40;3.60;;;;;;;1.50;83.38;99024.34;5041665;28;20133;-60
2021/11/30 01:27:37;;;;;;;5.80;3.92;;;;;;;1.49;83.93;99020.03;5044395;28;20040;-60
2021/11/30 01:30:06;;;;;;;11.13;5.07;;;;;;;1.48;83.86;99009.69;5042400;28;20033;-61
2021/11/30 01:32:32;;;;;;;5.40;3.53;;;;;;;1.43;83.92;99020.81;5043452;28;20082;-61
2021/11/30 01:34:57;;;;;;;10.65;4.18;;;;;;;1.53;83.31;99017.84;5038703;28;20116;-60
2021/11/30 01:37:23;;;;;;;7.45;4.03;;;;;;;1.48;83.75;99018.41;5050028;28;20048;-61
2021/11/30 01:39:48;;;;;;;7.38;4.03;;;;;;;1.46;83.53;99023.06;5042705;28;20037;-61
2021/11/30 01:42:14;;;;;;;9.10;4.20;;;;;;;1.53;83.09;99019.69;5041626;28;20108;-61
2021/11/30 01:44:48;;;;;;;8.48;3.97;;;;;;;1.50;83.13;99010.31;5043039;28;20025;-60
2021/11/30 01:49:48;;;;;;;9.27;3.47;;;;;;;1.47;82.68;99011.50;5042914;28;20140;-62
2021/11/30 01:52:14;;;;;;;10.20;4.03;;;;;;;1.56;83.15;99014.03;5043474;28;20053;-62
2021/11/30 01:54:40;;;;;;;7.70;4.10;;;;;;;1.53;82.73;99014.41;5042965;28;20265;-62
2021/11/30 01:57:10;;;;;;;8.70;3.80;;;;;;;1.45;82.58;99007.44;5037954;28;20407;-62
2021/11/30 01:59:36;;;;;;;8.15;3.72;;;;;;;1.45;82.44;99008.25;5035823;28;20094;-61
2021/11/30 02:02:02;;;;;;;8.43;4.22;;;;;;;1.41;82.99;99012.25;5041634;28;20041;-62
2021/11/30 02:04:27;;;;;;;7.93;3.63;;;;;;;1.48;82.83;99013.13;5042719;28;20033;-62
2021/11/30 02:06:53;;;;;;;10.93;3.95;;;;;;;1.37;82.93;99010.97;5032667;28;20037;-62
2021/11/30 02:09:18;;;;;;;10.73;3.70;;;;;;;1.34;83.57;99011.38;5032993;28;20029;-62
2021/11/30 02:11:44;;;;;;;11.93;4.00;;;;;;;1.40;83.17;99015.91;5040091;28;20087;-62
2021/11/30 02:14:09;;;;;;;8.00;3.63;;;;;;;1.45;84.35;99018.81;5038352;28;20029;-62
2021/11/30 02:16:35;;;;;;;9.38;4.10;;;;;;;1.44;83.85;99019.78;5040365;28;20144;-62
2021/11/30 02:19:02;;;;;;;10.98;4.43;;;;;;;1.33;84.66;99017.66;5037203;28;20045;-62
2021/11/30 02:21:32;;;;;;;9.43;4.43;;;;;;;1.43;83.94;99036.66;5041217;28;20470;-61
2021/11/30 02:23:59;;;;;;;7.93;3.90;;;;;;;1.35;84.63;99025.38;5042966;28;20551;-61
2021/11/30 02:26:25;;;;;;;8.57;4.00;;;;;;;1.34;85.35;99016.66;5042062;28;20041;-62
2021/11/30 02:28:51;;;;;;;9.38;4.10;;;;;;;1.29;85.78;99014.56;5042194;28;20024;-62
2021/11/30 02:31:18;;;;;;;8.27;4.10;;;;;;;1.27;86.50;99000.75;5042012;28;20365;-62
2021/11/30 02:33:44;;;;;;;11.73;4.18;;;;;;;1.18;87.07;98985.22;5041833;28;20095;-62
2021/11/30 02:36:29;;;;;;;8.02;4.55;;;;;;;1.08;88.07;98981.06;5040066;28;20033;-62
2021/11/30 02:38:55;;;;;;;9.27;5.18;;;;;;;1.09;87.99;98971.31;5038995;28;20025;-63
2021/11/30 02:41:20;;;;;;;13.77;4.97;;;;;;;1.13;88.41;98984.97;5040795;28;20127;-62
2021/11/30 02:43:46;;;;;;;9.52;5.85;;;;;;;1.11;88.25;98965.84;5041763;28;20037;-62
2021/11/30 02:46:11;;;;;;;12.85;4.43;;;;;;;1.13;88.20;98956.75;5041726;28;20048;-60
2021/11/30 02:48:37;;;;;;;9.10;5.57;;;;;;;1.12;89.12;98941.06;5041689;28;20542;-60
2021/11/30 02:51:07;;;;;;;12.13;5.72;;;;;;;1.08;89.05;98932.72;5037335;28;20433;-60
2021/11/30 02:53:33;;;;;;;13.45;4.75;;;;;;;1.08;88.71;98930.91;5039737;28;20483;-60
2021/11/30 02:55:58;;;;;;;12.65;5.88;;;;;;;1.08;89.12;98924.81;5039420;28;20048;-60
2021/11/30 02:58:24;;;;;;;12.40;6.45;;;;;;;1.02;90.16;98923.75;5041161;28;20083;-60
2021/11/30 03:00:49;;;;;;;11.63;5.80;;;;;;;0.99;89.98;98924.09;5040409;28;20868;-60
2021/11/30 03:03:15;;;;;;;10.80;5.40;;;;;;;0.99;90.13;98923.28;5041601;28;20713;-62
2021/11/30 03:05:40;;;;;;;12.43;6.43;;;;;;;1.00;90.89;98906.44;5040695;28;20781;-60
2021/11/30 03:08:06;;;;;;;10.57;6.40;;;;;;;1.00;90.68;98899.38;5041931;28;20032;-62
2021/11/30 03:10:31;;;;;;;8.93;6.13;;;;;;;0.90;91.23;98883.03;5041246;28;20033;-62
2021/11/30 03:12:57;;;;;;;9.85;6.30;;;;;;;0.94;91.63;98873.72;5041456;28;20467;-61
2021/11/30 03:15:24;;;;;;;12.27;5.38;;;;;;;0.92;91.55;98875.72;5040940;28;20060;-62
2021/11/30 03:17:49;;;;;;;9.82;5.18;;;;;;;0.83;92.22;98882.16;5041614;28;20029;-62
2021/11/30 03:20:15;;;;;;;11.40;5.78;;;;;;;0.81;92.30;98869.13;5029940;28;20451;-62
2021/11/30 03:22:41;;;;;;;17.15;6.63;;;;;;;0.83;92.72;98863.66;5041957;28;20036;-62
2021/11/30 03:25:08;;;;;;;18.60;6.53;;;;;;;0.86;92.78;98852.72;5040682;28;20028;-61
2021/11/30 03:27:34;;;;;;;14.95;7.15;;;;;;;0.85;92.74;98843.19;5040476;28;20036;-62
2021/11/30 03:30:00;;;;;;;13.80;7.03;;;;;;;0.85;92.47;98851.13;5039731;28;20044;-61
2021/11/30 03:35:12;;;;;;;14.77;7.20;;;;;;;0.83;93.41;98840.75;5032126;28;20076;-61
2021/11/30 03:37:37;;;;;;;15.55;7.30;;;;;;;0.82;93.68;98830.38;5037798;28;20037;-60
2021/11/30 03:40:04;;;;;;;14.43;7.68;;;;;;;0.90;93.43;98818.84;5041332;28;20036;-59
2021/11/30 03:42:30;;;;;;;15.05;6.50;;;;;;;0.88;93.20;98816.44;5040766;28;20147;-61
2021/11/30 03:44:55;;;;;;;13.55;7.05;;;;;;;1.06;93.23;98805.41;5040877;28;20106;-60
2021/11/30 03:47:22;;;;;;;15.68;7.88;;;;;;;1.04;92.63;98805.59;5040038;28;20511;-62
2021/11/30 03:49:47;;;;;;;12.25;7.45;;;;;;;1.06;92.51;98811.50;5035837;28;20098;-61
2021/11/30 03:52:13;;;;;;;11.18;6.50;;;;;;;1.08;92.87;98793.66;5040061;28;20041;-62
2021/11/30 03:54:38;;;;;;;10.85;6.10;;;;;;;1.16;92.29;98781.31;5040454;28;20391;-60
2021/11/30 03:57:04;;;;;;;12.32;7.32;;;;;;;1.16;93.26;98770.75;5037375;28;20041;-60
2021/11/30 03:59:29;;;;;;;13.38;7.32;;;;;;;1.10;93.56;98760.94;5041343;28;20116;-60
2021/11/30 04:01:55;;;;;;;14.60;6.60;;;;;;;1.19;93.57;98759.81;5038160;28;20041;-60
2021/11/30 04:04:22;;;;;;;16.42;7.78;;;;;;;1.10;93.62;98748.59;5039372;28;20028;-60
2021/11/30 04:06:52;;;;;;;13.95;7.95;;;;;;;1.12;94.22;98743.91;5037543;28;20045;-60
2021/11/30 04:09:19;;;;;;;10.32;5.80;;;;;;;1.14;94.19;98735.81;5039216;28;20057;-60
2021/11/30 04:11:45;;;;;;;13.00;6.85;;;;;;;1.09;94.30;98728.47;5043560;28;20159;-60
2021/11/30 04:14:10;;;;;;;10.18;6.32;;;;;;;1.01;95.00;98737.34;5044498;28;20028;-60
2021/11/30 04:16:36;;;;;;;13.50;6.68;;;;;;;1.11;95.00;98725.66;5044617;28;20045;-60
2021/11/30 04:19:01;;;;;;;13.38;7.10;;;;;;;1.13;94.73;98713.06;5045406;28;20090;-62
2021/11/30 04:21:27;;;;;;;10.60;6.47;;;;;;;1.21;94.77;98720.84;5044442;28;20041;-60
2021/11/30 04:23:53;;;;;;;8.82;5.45;;;;;;;1.15;94.50;98711.88;5043020;28;21373;-60
2021/11/30 04:26:19;;;;;;;11.23;6.63;;;;;;;1.12;94.74;98714.88;5044341;28;20075;-60
2021/11/30 04:28:45;;;;;;;10.93;7.05;;;;;;;1.19;95.80;98717.56;5045067;28;20115;-60
2021/11/30 04:31:11;;;;;;;15.90;6.65;;;;;;;1.12;95.73;98706.16;5044387;28;20037;-60
2021/11/30 04:33:36;;;;;;;12.73;6.47;;;;;;;1.06;95.64;98705.09;5037686;28;20025;-60
2021/11/30 04:36:05;;;;;;;9.70;6.43;;;;;;;1.05;95.91;98695.56;5041703;28;20044;-60
2021/11/30 04:38:30;;;;;;;10.80;6.20;;;;;;;1.05;95.97;98699.03;5044141;28;20068;-60
2021/11/30 04:40:56;;;;;;;9.38;5.80;;;;;;;1.10;96.16;98708.16;5044386;28;20399;-60
2021/11/30 04:43:21;;;;;;;10.63;6.53;;;;;;;1.00;96.36;98711.97;5042210;28;20048;-60
2021/11/30 04:45:58;;;;;;;10.48;6.25;;;;;;;1.00;97.09;98701.44;5043393;28;20102;-60
2021/11/30 04:48:25;;;;;;;7.45;5.00;;;;;;;0.94;96.52;98704.81;5040393;28;20170;-60
2021/11/30 04:50:52;;;;;;;9.77;5.40;;;;;;;0.90;96.51;98700.97;5042801;28;20079;-60
2021/11/30 04:53:20;;;;;;;8.27;5.65;;;;;;;0.88;96.71;98695.06;5044169;28;20101;-60
2021/11/30 04:55:47;;;;;;;7.20;5.18;;;;;;;0.86;97.17;98687.31;5042402;28;20127;-60
2021/11/30 04:58:12;;;;;;;8.07;4.95;;;;;;;0.96;96.82;98686.97;5042134;28;20040;-60
2021/11/30 05:00:38;;;;;;;8.88;5.15;;;;;;;0.90;97.37;98677.22;5042515;28;20041;-60
2021/11/30 05:03:05;;;;;;;8.50;5.50;;;;;;;0.93;96.93;98676.81;5041882;28;20029;-60
2021/11/30 05:05:31;;;;;;;5.97;4.47;;;;;;;0.90;96.84;98671.09;5037140;28;20057;-62
2021/11/30 05:07:56;;;;;;;8.15;5.38;;;;;;;0.84;96.67;98667.41;5042131;28;20025;-60
2021/11/30 05:10:21;;;;;;;8.25;4.60;;;;;;;0.85;96.96;98661.97;5022462;28;20057;-59
2021/11/30 05:12:47;;;;;;;10.05;6.65;;;;;;;0.82;97.04;98633.31;5042300;28;20039;-59
2021/11/30 05:15:12;;;;;;;9.00;6.00;;;;;;;0.89;96.58;98654.44;5041647;28;20131;-60
2021/11/30 05:17:38;;;;;;;12.95;10.48;;;;;;;0.94;96.77;98646.78;5041419;28;20052;-59
2021/11/30 05:20:04;;;;;;;9.55;6.50;;;;;;;0.96;96.96;98654.50;5037071;28;20471;-63
2021/11/30 05:22:30;;;;;;;7.07;4.75;;;;;;;0.96;96.44;98634.19;5042476;28;20614;-62
2021/11/30 05:24:56;;;;;;;18.85;14.57;;;;;;;0.96;96.33;98654.50;5043784;28;20743;-61
2021/11/30 05:27:21;;;;;;;6.90;4.70;;;;;;;0.99;96.84;98657.56;5042083;28;20052;-61
2021/11/30 05:29:47;;;;;;;7.95;4.78;;;;;;;0.97;96.40;98629.72;5043113;28;20071;-61
2021/11/30 05:32:12;;;;;;;11.85;6.60;;;;;;;0.98;96.18;98657.78;5041229;28;20113;-60
2021/11/30 05:34:38;;;;;;;6.32;4.15;;;;;;;1.04;96.05;98646.41;5037286;28;20400;-60
2021/11/30 05:37:03;;;;;;;12.25;7.60;;;;;;;1.08;95.91;98653.75;5039763;28;20489;-60
2021/11/30 05:39:29;;;;;;;6.55;4.18;;;;;;;1.02;96.11;98649.28;5042346;28;20036;-61
2021/11/30 05:41:54;;;;;;;6.88;4.70;;;;;;;1.00;96.37;98639.88;5029376;28;20052;-61
2021/11/30 05:44:20;;;;;;;6.13;4.13;;;;;;;1.02;96.28;98633.44;5041208;28;20032;-60
2021/11/30 05:46:46;;;;;;;5.95;4.53;;;;;;;1.01;96.68;98631.78;5036906;28;20514;-59
2021/11/30 05:49:12;;;;;;;7.65;5.65;;;;;;;1.00;96.75;98631.97;5040653;28;20032;-61
2021/11/30 05:51:37;;;;;;;4.70;3.47;;;;;;;1.12;96.46;98637.53;5040972;28;20081;-61
2021/11/30 05:54:03;;;;;;;4.65;3.53;;;;;;;1.01;96.60;98609.88;5041039;28;20033;-61
2021/11/30 05:56:28;;;;;;;7.88;5.22;;;;;;;1.03;96.46;98619.22;5042606;28;20037;-60
2021/11/30 05:58:54;;;;;;;4.97;3.60;;;;;;;1.11;96.13;98620.88;5042052;28;20029;-61
2021/11/30 06:01:27;;;;;;;5.30;3.72;;;;;;;1.11;96.22;98612.16;5033457;28;20066;-59
2021/11/30 06:06:18;;;;;;;7.05;4.68;;;;;;;1.17;96.22;98619.28;5042017;28;20285;-60
2021/11/30 06:08:43;;;;;;;6.63;4.13;;;;;;;1.18;96.38;98628.84;5042986;28;20688;-60
2021/11/30 06:11:09;;;;;;;5.60;3.90;;;;;;;1.16;96.07;98612.38;5039704;28;20152;-60
2021/11/30 06:13:34;;;;;;;7.30;4.25;;;;;;;1.18;95.96;98613.00;5042865;28;20040;-60
2021/11/30 06:16:00;;;;;;;4.95;3.03;;;;;;;1.22;95.92;98614.22;5041274;28;20044;-60
2021/11/30 06:18:25;;;;;;;3.92;2.92;;;;;;;1.31;95.27;98605.13;5038842;28;20036;-60
2021/11/30 06:20:50;;;;;;;5.50;3.78;;;;;;;1.28;95.49;98610.81;5042175;28;20049;-60
2021/11/30 06:23:16;;;;;;;7.03;4.65;;;;;;;1.32;95.72;98612.00;5040242;28;20074;-60
2021/11/30 06:25:41;;;;;;;6.32;4.88;;;;;;;1.43;94.67;98619.38;5040073;28;20049;-62
2021/11/30 06:28:07;;;;;;;6.10;4.20;;;;;;;1.42;95.07;98609.84;5038163;28;20032;-61
2021/11/30 06:30:32;;;;;;;6.78;4.40;;;;;;;1.45;95.40;98606.81;5040394;28;20357;-60
2021/11/30 06:32:58;;;;;;;4.75;3.33;;;;;;;1.53;94.84;98618.19;5041728;28;20470;-60
2021/11/30 06:35:23;;;;;;;5.00;2.80;;;;;;;1.54;93.66;98614.53;5040344;28;20599;-64
2021/11/30 06:37:48;;;;;;;7.18;3.47;;;;;;;1.50;93.76;98609.66;5034758;28;20036;-60
2021/11/30 06:40:14;;;;;;;4.65;3.35;;;;;;;1.55;93.80;98616.16;5041794;28;20029;-60
2021/11/30 06:42:40;;;;;;;4.72;3.33;;;;;;;1.54;93.80;98609.25;5041837;28;20028;-60
2021/11/30 06:45:07;;;;;;;5.00;3.22;;;;;;;1.54;94.53;98602.13;5041676;28;20033;-60
2021/11/30 06:47:32;;;;;;;5.00;3.35;;;;;;;1.59;94.23;98612.91;5042610;28;20040;-60
2021/11/30 06:49:57;;;;;;;4.13;2.92;;;;;;;1.61;94.23;98618.81;5041021;28;20028;-60
2021/11/30 06:52:23;;;;;;;4.68;3.28;;;;;;;1.62;94.51;98622.28;5041205;28;20762;-61
2021/11/30 06:54:51;;;;;;;6.97;3.47;;;;;;;1.65;93.76;98627.19;5041520;28;20028;-62
2021/11/30 06:57:17;;;;;;;5.32;3.08;;;;;;;1.70;94.56;98620.28;5040455;28;20435;-62
2021/11/30 06:59:43;;;;;;;4.57;2.88;;;;;;;1.68;94.13;98632.06;5037208;28;20068;-62
2021/11/30 07:02:09;;;;;;;3.55;2.70;;;;;;;1.68;93.73;98621.50;5040300;28;20044;-61
2021/11/30 07:04:38;;;;;;;3.95;2.85;;;;;;;1.68;93.97;98642.63;5041593;28;20027;-61
2021/11/30 07:09:58;;;;;;;7.63;3.63;;;;;;;1.72;94.79;98635.91;5041269;28;20493;-61
2021/11/30 07:15:05;;;;;;;4.05;2.90;;;;;;;1.63;95.06;98626.56;5038128;28;20036;-61
2021/11/30 07:17:34;;;;;;;3.10;2.35;;;;;;;1.86;94.47;98623.56;5041244;28;20131;-61
2021/11/30 07:19:59;;;;;;;3.63;2.20;;;;;;;1.83;93.91;98632.69;5041446;28;20419;-61
2021/11/30 07:22:25;;;;;;;7.97;2.92;;;;;;;1.83;94.30;98635.34;5047619;28;20060;-61
2021/11/30 07:24:50;;;;;;;3.25;2.40;;;;;;;1.99;94.06;98636.78;5041404;28;20671;-61
2021/11/30 07:27:16;;;;;;;4.00;2.67;;;;;;;2.08;92.97;98642.69;5027793;28;20492;-61
2021/11/30 07:29:41;;;;;;;3.88;2.47;;;;;;;2.09;93.64;98623.16;5040777;28;20033;-61
2021/11/30 07:32:08;;;;;;;2.80;2.08;;;;;;;2.02;93.75;98628.47;5039896;28;20048;-61
2021/11/30 07:34:33;;;;;;;3.10;2.20;;;;;;;2.01;94.08;98629.47;5041237;28;20037;-61
2021/11/30 07:36:59;;;;;;;2.60;1.92;;;;;;;2.41;92.22;98621.53;5040608;28;20048;-61
2021/11/30 07:39:24;;;;;;;1.98;1.65;;;;;;;2.38;92.55;98628.06;5040816;28;20052;-61
2021/11/30 07:41:50;;;;;;;3.40;2.47;;;;;;;2.20;92.77;98609.34;5039663;28;20461;-61
2021/11/30 07:44:15;;;;;;;3.42;2.30;;;;;;;2.35;92.74;98622.38;5038623;28;20075;-61
2021/11/30 07:46:41;;;;;;;5.05;2.67;;;;;;;2.48;92.76;98617.06;5038292;28;20048;-61
2021/11/30 07:49:06;;;;;;;4.95;2.88;;;;;;;2.44;92.89;98617.66;5040923;28;20028;-61
2021/11/30 07:51:32;;;;;;;4.28;2.60;;;;;;;2.40;93.14;98608.50;5040051;28;20431;-61
2021/11/30 07:53:58;;;;;;;3.58;2.28;;;;;;;2.41;93.16;98618.09;5041433;28;20543;-61
2021/11/30 07:56:24;;;;;;;2.88;1.88;;;;;;;2.49;92.91;98591.41;5040117;28;20079;-61
2021/11/30 07:58:49;;;;;;;8.95;4.28;;;;;;;2.49;93.41;98608.09;5041208;28;20111;-61
2021/11/30 08:01:16;;;;;;;2.85;1.83;;;;;;;2.61;93.18;98599.56;5037255;28;20573;-61
2021/11/30 08:03:43;;;;;;;9.55;5.07;;;;;;;2.63;92.92;98592.22;5041915;28;20042;-61
2021/11/30 08:06:08;;;;;;;6.25;3.22;;;;;;;2.71;92.91;98587.50;5039525;28;20037;-61
2021/11/30 08:08:34;;;;;;;5.40;2.40;;;;;;;2.69;92.11;98597.47;5041032;28;20490;-61
2021/11/30 08:10:59;;;;;;;1.75;1.60;;;;;;;2.74;92.08;98578.34;5032318;28;20048;-59
2021/11/30 08:13:25;;;;;;;4.50;1.75;;;;;;;2.81;91.55;98590.53;5040823;28;20052;-60
2021/11/30 08:15:50;;;;;;;5.82;3.03;;;;;;;2.88;91.94;98600.31;5039891;28;20041;-60
2021/11/30 08:18:15;;;;;;;4.63;2.40;;;;;;;2.83;92.20;98576.31;5035546;28;20033;-60
2021/11/30 08:20:41;;;;;;;2.35;1.45;;;;;;;2.83;92.43;98584.25;5039884;28;20440;-60
2021/11/30 08:23:07;;;;;;;3.35;1.63;;;;;;;2.86;92.55;98594.41;5040706;28;20068;-60
2021/11/30 08:25:33;;;;;;;1.55;1.45;;;;;;;2.81;92.73;98584.44;5029520;28;20041;-60
2021/11/30 08:27:58;;;;;;;7.47;3.95;;;;;;;2.95;92.29;98579.94;5040148;28;20079;-62
2021/11/30 08:30:24;;;;;;;3.53;2.38;;;;;;;2.93;91.66;98576.66;5040242;28;20711;-61
2021/11/30 08:32:49;;;;;;;2.17;1.40;;;;;;;3.01;92.12;98574.59;5033318;28;20025;-62
2021/11/30 08:35:15;;;;;;;1.85;1.17;;;;;;;3.03;90.94;98584.97;5041186;28;20044;-60
2021/11/30 08:37:40;;;;;;;1.67;1.33;;;;;;;3.19;90.90;98571.25;5040349;28;20040;-62
2021/11/30 08:40:07;;;;;;;3.20;1.90;;;;;;;3.21;91.09;98579.81;5040162;28;20028;-61
2021/11/30 08:42:32;;;;;;;1.98;1.77;;;;;;;3.15;90.60;98583.31;5040514;28;20255;-60
2021/11/30 08:44:57;;;;;;;1.83;1.40;;;;;;;3.24;90.26;98570.63;5040889;28;20037;-60
2021/11/30 08:47:23;;;;;;;2.03;1.80;;;;;;;3.28;90.33;98587.72;5039860;28;20053;-59
2021/11/30 08:49:49;;;;;;;1.45;1.35;;;;;;;3.34;89.69;98576.28;5039705;28;20096;-62
2021/11/30 08:52:17;;;;;;;2.40;1.40;;;;;;;3.39;89.93;98565.84;5039290;28;20436;-59
2021/11/30 08:54:45;;;;;;;1.40;1.23;;;;;;;3.43;89.58;98563.63;5039769;28;20040;-61
2021/11/30 08:57:10;;;;;;;1.75;1.13;;;;;;;3.49;89.16;98560.09;5039601;28;20516;-60
2021/11/30 08:59:37;;;;;;;1.45;1.20;;;;;;;3.50;89.09;98561.75;5042417;28;20032;-60
2021/11/30 09:02:03;;;;;;;2.05;1.63;;;;;;;3.46;89.20;98564.00;5043006;28;20049;-61
2021/11/30 09:04:28;;;;;;;1.20;1.05;;;;;;;3.59;89.38;98560.44;5045123;28;20135;-62
2021/11/30 09:06:54;;;;;;;1.58;0.90;;;;;;;3.58;89.05;98564.13;5041290;28;20049;-59
2021/11/30 09:09:19;;;;;;;1.88;1.58;;;;;;;3.62;88.81;98568.00;5041542;28;20518;-60
2021/11/30 09:11:45;;;;;;;1.45;1.20;;;;;;;3.61;88.60;98565.53;5038763;28;20053;-62
2021/11/30 09:14:11;;;;;;;0.80;0.80;;;;;;;3.60;88.81;98563.94;5038087;28;20030;-60
2021/11/30 09:16:37;;;;;;;0.93;0.93;;;;;;;3.70;88.69;98560.81;5041537;28;20120;-59
2021/11/30 09:19:03;;;;;;;4.88;1.15;;;;;;;3.65;88.72;98549.00;5039115;28;20063;-60
2021/11/30 09:21:29;;;;;;;0.75;0.75;;;;;;;3.75;88.24;98563.63;5041819;28;20075;-61
2021/11/30 09:23:55;;;;;;;6.20;3.97;;;;;;;3.80;88.12;98569.09;5031095;28;20025;-61
2021/11/30 09:26:20;;;;;;;3.47;2.40;;;;;;;3.79;88.50;98564.81;5043298;28;20049;-62
2021/11/30 09:28:46;;;;;;;2.00;1.73;;;;;;;3.84;88.15;98559.69;5038564;28;20647;-62
2021/11/30 09:31:11;;;;;;;1.05;1.02;;;;;;;3.86;88.72;98539.88;5042224;28;20053;-62
2021/11/30 09:33:39;;;;;;;1.83;1.27;;;;;;;3.92;88.56;98558.59;5042501;28;20041;-65
2021/11/30 09:36:06;;;;;;;3.33;2.22;;;;;;;3.93;89.16;98569.00;5041371;28;20041;-62
2021/11/30 09:38:31;;;;;;;3.03;2.10;;;;;;;3.96;89.03;98568.56;5036591;28;20515;-62
2021/11/30 09:41:01;;;;;;;4.20;2.45;;;;;;;3.96;89.88;98570.41;5042701;28;20041;-61
2021/11/30 09:43:31;;;;;;;3.00;1.85;;;;;;;3.94;90.07;98567.16;5041134;28;20040;-61
2021/11/30 09:45:57;;;;;;;2.22;1.58;;;;;;;3.94;90.53;98573.25;5039809;28;20057;-62
2021/11/30 09:48:23;;;;;;;3.10;2.20;;;;;;;4.03;90.63;98563.22;5041299;28;20228;-61
2021/11/30 09:50:48;;;;;;;4.10;2.78;;;;;;;4.00;91.21;98555.69;5041256;28;20056;-62
2021/11/30 09:53:14;;;;;;;1.90;1.60;;;;;;;4.06;91.42;98554.81;5042345;28;20036;-62
2021/11/30 09:55:40;;;;;;;2.10;1.58;;;;;;;4.00;91.60;98559.16;5041423;28;20110;-59
2021/11/30 09:58:05;;;;;;;4.95;1.20;;;;;;;4.03;91.90;98561.38;5041965;28;20027;-60
2021/11/30 10:00:33;;;;;;;2.53;1.60;;;;;;;4.01;92.17;98552.81;5038155;28;20100;-59
2021/11/30 10:02:59;;;;;;;2.38;1.88;;;;;;;4.01;92.20;98555.47;5040114;28;20033;-62
2021/11/30 10:05:24;;;;;;;3.33;1.70;;;;;;;4.10;91.69;98550.72;5041091;28;20503;-59
2021/11/30 10:07:51;;;;;;;2.17;1.90;;;;;;;3.99;91.64;98554.88;5040814;28;20028;-62
2021/11/30 10:10:17;;;;;;;4.65;1.70;;;;;;;4.05;91.97;98553.22;5042920;28;20040;-60
2021/11/30 10:12:43;;;;;;;3.22;2.30;;;;;;;4.08;91.38;98556.22;5042201;28;20048;-60
2021/11/30 10:15:10;;;;;;;3.33;2.20;;;;;;;4.18;91.62;98552.28;5042539;28;20128;-60
2021/11/30 10:17:37;;;;;;;1.50;1.30;;;;;;;4.21;91.27;98551.84;5043213;28;20033;-60
2021/11/30 10:20:07;;;;;;;1.50;1.40;;;;;;;4.17;91.79;98556.78;5042318;28;20461;-60
2021/11/30 10:22:54;;;;;;;1.38;1.27;;;;;;;4.22;90.95;98535.72;5043225;28;20052;-60
2021/11/30 10:25:29;;;;;;;2.22;1.90;;;;;;;4.25;91.25;98545.09;5051940;28;20026;-60
2021/11/30 10:27:59;;;;;;;3.10;1.98;;;;;;;4.22;91.82;98550.81;5040061;28;20627;-60
2021/11/30 10:30:27;;;;;;;1.42;1.33;;;;;;;4.23;91.89;98544.47;5041517;28;20048;-60
2021/11/30 10:32:53;;;;;;;1.42;1.33;;;;;;;4.19;91.90;98548.59;5040719;28;20116;-60
2021/11/30 10:35:19;;;;;;;1.35;1.10;;;;;;;4.18;91.77;98547.78;5035708;28;20051;-60
2021/11/30 10:37:45;;;;;;;1.10;0.90;;;;;;;4.22;92.09;98545.50;5037814;28;20052;-61
2021/11/30 10:40:16;;;;;;;1.88;1.45;;;;;;;4.22;91.79;98548.16;5042734;28;20025;-60
2021/11/30 10:42:45;;;;;;;;;;;;;;;4.24;91.84;98546.09;5043385;28;20025;-60
2021/11/30 10:45:10;;;;;;;1.33;1.00;;;;;;;4.28;92.41;98547.28;5041758;28;20062;-60
2021/11/30 10:47:36;;;;;;;6.43;3.33;;;;;;;4.29;91.91;98544.44;5038282;28;20288;-62
2021/11/30 10:50:11;;;;;;;0.77;0.77;;;;;;;4.26;91.41;98544.03;5041365;28;20485;-62
2021/11/30 10:52:40;;;;;;;1.00;0.90;;;;;;;4.28;91.55;98542.00;5038744;28;20111;-62
2021/11/30 10:55:06;;;;;;;4.53;2.50;;;;;;;4.41;91.23;98546.34;5039000;28;20063;-61
2021/11/30 10:57:32;;;;;;;1.60;1.42;;;;;;;4.35;91.54;98542.75;5042032;28;20028;-61
2021/11/30 11:00:32;;;;;;;6.57;4.22;;;;;;;4.46;90.61;98527.94;5041467;28;20037;-61
2021/11/30 11:03:08;;;;;;;1.80;1.50;;;;;;;4.48;91.76;98539.94;5042024;28;20069;-61
2021/11/30 11:05:36;;;;;;;1.58;1.40;;;;;;;4.51;91.16;98546.66;5033898;28;20079;-61
2021/11/30 11:08:07;;;;;;;4.68;2.25;;;;;;;4.47;91.85;98546.28;5040599;28;20180;-60
2021/11/30 11:10:33;;;;;;;2.10;1.65;;;;;;;4.47;91.00;98535.69;5041491;28;20039;-60
2021/11/30 11:13:21;;;;;;;2.10;1.27;;;;;;;4.49;90.83;98522.19;5041532;28;20585;-61
2021/11/30 11:15:46;;;;;;;1.40;1.25;;;;;;;4.43;91.72;98537.13;5041840;28;20053;-60
2021/11/30 11:18:32;;;;;;;2.67;1.80;;;;;;;4.45;91.72;98539.59;5028803;28;20037;-61
2021/11/30 11:21:33;;;;;;;5.35;3.25;;;;;;;4.50;91.56;98531.78;5038421;28;20467;-61
2021/11/30 11:24:04;;;;;;;;;;;;;;;4.47;91.78;98541.00;5033384;28;20041;-60
2021/11/30 11:26:38;;;;;;;2.83;2.15;;;;;;;4.50;91.86;98543.19;5036998;28;20167;-61
2021/11/30 11:29:09;;;;;;;2.72;2.30;;;;;;;4.50;91.20;98551.16;5041583;28;20070;-61
2021/11/30 11:31:35;;;;;;;;;;;;;;;4.49;92.41;98549.56;5041744;28;20045;-61
2021/11/30 11:34:01;;;;;;;2.53;1.67;;;;;;;4.53;92.20;98550.72;5040524;28;19957;-61
2021/11/30 11:36:27;;;;;;;1.45;1.30;;;;;;;4.51;92.20;98539.50;5040294;28;20080;-61
2021/11/30 11:38:52;;;;;;;1.17;1.08;;;;;;;4.58;92.09;98535.97;5041704;28;20068;-62
2021/11/30 11:41:19;;;;;;;1.20;1.10;;;;;;;4.62;91.39;98553.91;5041218;28;20049;-61
2021/11/30 11:43:44;;;;;;;2.30;1.98;;;;;;;4.61;92.16;98546.16;5041922;28;20063;-61
2021/11/30 11:46:15;;;;;;;4.75;3.65;;;;;;;4.60;92.18;98549.84;5040738;28;20041;-61
2021/11/30 11:48:40;;;;;;;2.03;1.70;;;;;;;4.61;92.21;98552.28;5040780;28;20552;-61
2021/11/30 11:51:07;;;;;;;1.50;1.15;;;;;;;4.66;92.31;98541.00;5032869;28;20197;-61
2021/11/30 11:53:59;;;;;;;1.40;1.30;;;;;;;4.71;92.67;98541.13;5041852;28;20538;-61
2021/11/30 11:56:26;;;;;;;1.58;1.42;;;;;;;4.81;91.81;98540.63;5038374;28;20350;-63
2021/11/30 11:59:17;;;;;;;5.35;2.85;;;;;;;4.88;91.39;98536.06;5040810;28;20029;-61